Time;durP1;ratioP1;P1;durP2;ratioP2;P2;SDS_P1;SDS_P2;PMS_P1;PMS_P2;Temp;Humidity;BMP_temperature;BMP_pressure;BME280_temperature;BME280_humidity;BME280_pressure;Samples;Min_cycle;Max_cycle;Signal;HPM_P1;HPM_P2
2022/07/27 00:00:17;;;;;;;2.00;1.50;;;;;;;14.89;72.57;96037.72;2041969;28;20052;-38
2022/07/27 00:01:18;;;;;;;3.00;1.80;;;;;;;14.88;72.71;96043.91;2041153;29;20552;-36
2022/07/27 00:02:19;;;;;;;2.45;1.50;;;;;;;14.85;72.61;96041.50;2042005;28;20366;-37
2022/07/27 00:03:22;;;;;;;3.83;1.85;;;;;;;14.82;73.24;96032.06;2057089;28;20050;-37
2022/07/27 00:04:23;;;;;;;3.55;1.90;;;;;;;14.81;72.31;96040.88;2048847;28;20050;-38
2022/07/27 00:05:24;;;;;;;4.88;1.80;;;;;;;14.85;71.97;96038.88;2041977;29;20051;-37
2022/07/27 00:06:25;;;;;;;2.78;1.67;;;;;;;14.90;71.33;96035.03;2049438;29;20042;-39
2022/07/27 00:07:27;;;;;;;6.50;1.90;;;;;;;14.93;71.40;96034.84;2041478;29;20051;-37
2022/07/27 00:08:28;;;;;;;3.45;1.50;;;;;;;14.97;70.79;96030.28;2049058;29;20055;-36
2022/07/27 00:09:29;;;;;;;3.75;1.65;;;;;;;15.01;70.75;96031.72;2040632;29;20051;-36
2022/07/27 00:10:31;;;;;;;3.28;1.40;;;;;;;15.05;70.83;96025.38;2041200;28;20039;-37
2022/07/27 00:11:32;;;;;;;3.75;1.52;;;;;;;15.07;70.17;96030.50;2049196;29;20039;-37
2022/07/27 00:12:34;;;;;;;5.55;1.77;;;;;;;15.11;71.22;96029.38;2049711;28;20451;-39
2022/07/27 00:13:35;;;;;;;2.92;1.70;;;;;;;15.18;71.45;96030.63;2057178;28;20436;-37
2022/07/27 00:14:36;;;;;;;3.97;1.50;;;;;;;15.20;70.92;96028.78;2049100;29;20505;-37
2022/07/27 00:15:37;;;;;;;2.17;1.52;;;;;;;15.25;69.82;96033.72;2041069;29;20047;-34
2022/07/27 00:16:39;;;;;;;2.45;1.67;;;;;;;15.28;70.07;96028.28;2048655;28;20054;-37
2022/07/27 00:17:40;;;;;;;2.90;1.70;;;;;;;15.35;69.16;96024.31;2049705;29;20088;-39
2022/07/27 00:18:41;;;;;;;4.90;1.63;;;;;;;15.38;68.84;96022.34;2056928;28;20085;-37
2022/07/27 00:19:42;;;;;;;4.93;1.70;;;;;;;15.42;68.49;96017.72;2049311;29;20046;-38
2022/07/27 00:20:44;;;;;;;4.78;1.70;;;;;;;15.41;67.97;96021.28;2056362;28;20050;-36
2022/07/27 00:21:45;;;;;;;5.28;1.80;;;;;;;15.46;68.02;96013.16;2057151;28;20050;-39
2022/07/27 00:22:46;;;;;;;2.65;1.33;;;;;;;15.46;67.99;96013.16;2056487;28;20047;-40
2022/07/27 00:23:47;;;;;;;4.82;1.50;;;;;;;15.45;69.15;96009.69;2056900;28;20050;-39
2022/07/27 00:24:48;;;;;;;4.03;1.73;;;;;;;15.49;68.89;96003.31;2041691;29;20047;-38
2022/07/27 00:25:50;;;;;;;2.95;1.60;;;;;;;15.50;69.22;96006.75;2048916;29;20536;-37
2022/07/27 00:26:51;;;;;;;3.78;1.60;;;;;;;15.46;69.36;95998.28;2057306;28;20054;-37
2022/07/27 00:27:53;;;;;;;2.42;1.40;;;;;;;15.44;69.15;96005.38;2048375;29;20047;-40
2022/07/27 00:28:54;;;;;;;2.95;1.50;;;;;;;15.39;70.24;95995.22;2041105;29;20048;-37
2022/07/27 00:29:55;;;;;;;3.67;1.60;;;;;;;15.36;70.46;95997.22;2041798;28;20074;-37
2022/07/27 00:30:56;;;;;;;5.10;1.63;;;;;;;15.38;70.40;96001.41;2041877;29;20054;-36
2022/07/27 00:31:57;;;;;;;2.30;1.30;;;;;;;15.39;70.26;95997.84;2048384;29;20066;-38
2022/07/27 00:32:59;;;;;;;3.60;1.70;;;;;;;15.40;69.87;95991.69;2050245;28;20532;-39
2022/07/27 00:34:00;;;;;;;3.33;1.55;;;;;;;15.40;70.16;95996.91;2056637;28;20051;-36
2022/07/27 00:35:02;;;;;;;4.00;1.85;;;;;;;15.42;69.54;96002.88;2057339;28;20042;-39
2022/07/27 00:36:03;;;;;;;3.13;1.50;;;;;;;15.45;69.67;96004.47;2049564;28;20580;-38
2022/07/27 00:37:05;;;;;;;3.15;1.58;;;;;;;15.47;69.67;95999.94;2049123;29;20146;-41
2022/07/27 00:38:06;;;;;;;2.88;1.75;;;;;;;15.49;68.23;95999.84;2033369;29;20538;-37
2022/07/27 00:39:08;;;;;;;3.55;1.60;;;;;;;15.54;68.67;96003.00;2048901;29;20043;-37
2022/07/27 00:40:10;;;;;;;3.40;1.45;;;;;;;15.55;67.85;96005.50;2048901;29;20140;-42
2022/07/27 00:41:11;;;;;;;2.42;1.27;;;;;;;15.56;67.87;96001.97;2049377;29;20441;-39
2022/07/27 00:42:12;;;;;;;4.55;1.80;;;;;;;15.58;67.81;96002.72;2048404;29;20062;-37
2022/07/27 00:43:14;;;;;;;7.45;1.60;;;;;;;15.58;68.11;95997.47;2048748;29;20051;-37
2022/07/27 00:44:24;;;;;;;3.20;1.55;;;;;;;15.57;68.04;95995.78;2041305;29;20043;-40
2022/07/27 00:45:25;;;;;;;3.45;1.50;;;;;;;15.57;67.94;95997.56;2056709;28;20116;-38
2022/07/27 00:46:27;;;;;;;3.17;1.70;;;;;;;15.56;68.39;95999.34;2049710;28;20118;-37
2022/07/27 00:47:28;;;;;;;4.05;1.40;;;;;;;15.56;68.58;95996.72;2048877;28;20046;-35
2022/07/27 00:48:29;;;;;;;2.90;1.40;;;;;;;15.52;68.75;95999.66;2048842;29;20050;-40
2022/07/27 00:49:30;;;;;;;3.00;1.73;;;;;;;15.51;68.86;95997.97;2033757;29;20522;-37
2022/07/27 00:50:32;;;;;;;4.15;1.50;;;;;;;15.52;69.16;96004.88;2041164;29;20040;-35
2022/07/27 00:51:33;;;;;;;2.65;1.42;;;;;;;15.53;70.29;96004.78;2048651;29;20548;-35
2022/07/27 00:52:35;;;;;;;3.55;1.65;;;;;;;15.58;71.11;95999.22;2048872;29;20477;-37
2022/07/27 00:53:36;;;;;;;2.58;1.60;;;;;;;15.68;70.01;96005.53;2041207;29;20054;-37
2022/07/27 00:54:37;;;;;;;1.92;1.27;;;;;;;15.75;71.11;95996.34;2040894;29;20564;-36
2022/07/27 00:55:39;;;;;;;2.92;1.52;;;;;;;15.78;72.41;96011.84;2048884;29;20537;-37
2022/07/27 00:56:41;;;;;;;5.30;1.65;;;;;;;15.81;70.90;96000.34;2048598;29;20051;-35
2022/07/27 00:57:42;;;;;;;4.43;1.80;;;;;;;15.88;70.11;95993.75;2056465;28;20440;-38
2022/07/27 00:58:46;;;;;;;3.15;1.30;;;;;;;15.92;69.60;95992.59;2048559;29;20644;-36
2022/07/27 00:59:47;;;;;;;2.75;1.50;;;;;;;15.95;69.40;95997.59;2049043;28;20047;-36
2022/07/27 01:00:48;;;;;;;4.75;1.42;;;;;;;15.98;68.42;95997.38;2049282;28;20046;-36
2022/07/27 01:01:49;;;;;;;2.42;1.50;;;;;;;16.01;66.45;95993.72;2033323;29;20434;-35
2022/07/27 01:02:51;;;;;;;4.53;1.63;;;;;;;16.03;66.24;95992.69;2056617;28;20057;-39
2022/07/27 01:03:52;;;;;;;4.30;1.40;;;;;;;16.05;67.13;95992.59;2057624;28;20046;-39
2022/07/27 01:04:53;;;;;;;2.63;1.40;;;;;;;16.07;67.01;95983.69;2048781;29;20047;-38
2022/07/27 01:05:55;;;;;;;4.53;1.40;;;;;;;16.07;67.49;95985.47;2049495;28;20062;-37
2022/07/27 01:06:56;;;;;;;2.65;1.50;;;;;;;16.11;66.52;95984.28;2048474;29;20055;-37
2022/07/27 01:07:57;;;;;;;2.80;1.30;;;;;;;16.14;66.06;95989.31;2056590;28;20050;-38
2022/07/27 01:11:21;;;;;;;2.67;1.40;;;;;;;16.10;66.79;95980.84;2045791;29;20437;-37
2022/07/27 01:12:23;;;;;;;3.72;1.38;;;;;;;16.07;67.37;95988.91;2040253;29;20055;-37
2022/07/27 01:13:25;;;;;;;3.13;1.50;;;;;;;16.09;67.20;95984.41;2056600;28;20049;-41
2022/07/27 01:14:26;;;;;;;3.88;1.73;;;;;;;16.12;67.87;95985.97;2048711;29;20513;-36
2022/07/27 01:15:27;;;;;;;4.65;1.80;;;;;;;16.16;68.73;95989.22;2049295;28;20050;-38
2022/07/27 01:16:28;;;;;;;3.35;1.50;;;;;;;16.12;68.48;95978.13;2041093;29;20434;-40
2022/07/27 01:17:30;;;;;;;2.88;1.63;;;;;;;16.12;68.51;95980.75;2040971;29;20421;-37
2022/07/27 01:18:33;;;;;;;4.90;1.70;;;;;;;16.13;68.46;95979.78;2056361;28;20051;-38
2022/07/27 01:19:35;;;;;;;3.33;1.40;;;;;;;16.13;67.73;95973.72;2048235;29;20043;-38
2022/07/27 01:20:36;;;;;;;4.63;1.50;;;;;;;16.16;67.93;95968.25;2056415;28;20039;-37
2022/07/27 01:21:37;;;;;;;4.15;1.63;;;;;;;16.14;66.92;95970.16;2048804;29;20046;-37
2022/07/27 01:22:38;;;;;;;3.55;1.50;;;;;;;16.10;66.77;95972.97;2041404;28;20048;-36
2022/07/27 01:23:39;;;;;;;5.93;1.75;;;;;;;16.11;67.11;95965.94;2048776;29;20039;-38
2022/07/27 01:24:41;;;;;;;2.83;1.50;;;;;;;16.09;66.82;95967.84;2040085;29;20542;-40
2022/07/27 01:25:42;;;;;;;3.28;1.40;;;;;;;16.06;64.98;95971.53;2032756;29;20063;-37
2022/07/27 01:26:43;;;;;;;2.60;1.40;;;;;;;16.04;65.43;95968.19;2041392;28;20437;-37
2022/07/27 01:27:44;;;;;;;5.75;1.50;;;;;;;15.98;66.71;95975.59;2040505;29;20555;-37
2022/07/27 01:28:46;;;;;;;3.97;1.60;;;;;;;15.95;67.22;95974.03;2040722;29;20055;-39
2022/07/27 01:29:47;;;;;;;6.53;1.55;;;;;;;15.98;67.31;95970.38;2048521;29;20051;-39
2022/07/27 01:30:49;;;;;;;4.38;1.80;;;;;;;16.00;67.43;95979.78;2040953;29;20055;-38
2022/07/27 01:31:50;;;;;;;4.47;1.65;;;;;;;16.03;68.13;95970.88;2047730;29;20050;-38
2022/07/27 01:32:59;;;;;;;3.00;1.50;;;;;;;16.01;67.55;95965.78;2049131;28;20047;-41
2022/07/27 01:34:00;;;;;;;2.67;1.30;;;;;;;16.02;66.67;95967.44;2048491;29;20058;-38
2022/07/27 01:35:02;;;;;;;3.05;1.30;;;;;;;16.02;67.23;95967.44;2048490;29;20042;-40
2022/07/27 01:36:03;;;;;;;2.60;1.35;;;;;;;16.03;66.95;95968.28;2041050;29;20529;-38
2022/07/27 01:37:04;;;;;;;5.10;1.30;;;;;;;16.03;67.21;95963.03;2047948;29;20422;-36
2022/07/27 01:38:07;;;;;;;4.28;1.60;;;;;;;16.01;67.40;95963.16;2048731;29;20727;-39
2022/07/27 01:39:08;;;;;;;4.47;1.42;;;;;;;16.02;67.98;95962.19;2040759;29;20070;-39
2022/07/27 01:40:10;;;;;;;2.58;1.35;;;;;;;16.01;67.60;95960.53;2055598;28;20059;-39
2022/07/27 01:41:11;;;;;;;3.22;1.48;;;;;;;16.00;66.80;95958.00;2048510;29;20058;-41
2022/07/27 01:42:15;;;;;;;1.80;1.30;;;;;;;15.97;66.09;95953.00;2039578;29;20450;-38
2022/07/27 01:43:16;;;;;;;2.95;1.40;;;;;;;15.94;66.13;95961.06;2040930;29;20052;-38
2022/07/27 01:44:17;;;;;;;7.05;1.58;;;;;;;15.90;66.95;95954.34;2041257;29;20048;-37
2022/07/27 01:45:18;;;;;;;4.43;1.13;;;;;;;15.87;66.45;95958.84;2048562;28;20482;-39
2022/07/27 01:46:20;;;;;;;2.08;1.20;;;;;;;15.88;66.53;95962.31;2040803;29;20063;-41
2022/07/27 01:47:21;;;;;;;3.95;1.20;;;;;;;15.84;66.70;95958.22;2048106;28;20174;-33
2022/07/27 01:48:22;;;;;;;4.28;1.45;;;;;;;15.81;64.73;95950.59;2048120;29;20047;-39
2022/07/27 01:49:23;;;;;;;4.22;1.42;;;;;;;15.80;65.43;95949.75;2040588;29;20040;-37
2022/07/27 01:50:24;;;;;;;4.13;1.38;;;;;;;15.85;64.71;95945.03;2040552;29;20048;-39
2022/07/27 01:51:26;;;;;;;3.17;1.30;;;;;;;15.85;64.19;95945.03;2040864;29;20048;-38
2022/07/27 01:52:27;;;;;;;2.35;1.20;;;;;;;15.87;63.90;95945.75;2039999;29;20039;-37
2022/07/27 01:53:28;;;;;;;3.47;1.17;;;;;;;15.87;63.43;95930.03;2040307;29;20118;-40
2022/07/27 01:54:29;;;;;;;5.40;1.30;;;;;;;15.83;64.54;95935.63;2040469;29;20052;-37
2022/07/27 01:55:30;;;;;;;2.35;1.20;;;;;;;15.83;63.80;95935.63;2040468;29;20050;-39
2022/07/27 01:56:32;;;;;;;3.28;1.08;;;;;;;15.81;64.04;95937.50;2040429;29;20047;-36
2022/07/27 01:57:33;;;;;;;4.20;1.38;;;;;;;15.79;64.37;95934.97;2040657;29;20055;-38
2022/07/27 01:58:36;;;;;;;3.97;1.40;;;;;;;15.77;63.96;95936.03;2056203;28;20050;-39
2022/07/27 01:59:38;;;;;;;4.43;1.27;;;;;;;15.75;63.91;95936.16;2047925;29;20054;-35
2022/07/27 02:00:39;;;;;;;8.55;1.80;;;;;;;15.69;64.98;95941.81;2041574;28;20529;-36
2022/07/27 02:01:41;;;;;;;4.35;1.60;;;;;;;15.64;64.30;95929.00;2048996;28;20054;-38
2022/07/27 02:02:42;;;;;;;3.80;1.40;;;;;;;15.67;65.18;95933.19;2047945;29;20417;-37
2022/07/27 02:03:43;;;;;;;4.97;1.52;;;;;;;15.68;64.71;95937.47;2048904;28;20047;-35
2022/07/27 02:04:44;;;;;;;2.72;1.33;;;;;;;15.71;64.62;95936.44;2048509;29;20666;-37
2022/07/27 02:05:46;;;;;;;3.05;1.40;;;;;;;15.75;65.37;95936.16;2048334;29;20558;-37
2022/07/27 02:06:47;;;;;;;3.67;1.40;;;;;;;15.82;65.54;95942.66;2056292;28;20067;-40
2022/07/27 02:07:48;;;;;;;3.25;1.30;;;;;;;15.88;64.77;95944.00;2040257;29;20051;-38
2022/07/27 02:08:49;;;;;;;5.20;1.63;;;;;;;15.94;65.14;95940.94;2033127;29;20056;-37
2022/07/27 02:09:51;;;;;;;3.28;1.60;;;;;;;15.98;65.48;95947.63;2056318;28;20429;-37
2022/07/27 02:13:33;;;;;;;6.20;1.50;;;;;;;16.08;64.54;95939.97;2053957;28;20065;-39
2022/07/27 02:14:34;;;;;;;3.92;1.80;;;;;;;16.13;65.09;95947.53;2047737;29;20556;-36
2022/07/27 02:15:35;;;;;;;3.38;1.45;;;;;;;16.13;65.60;95937.03;2047624;29;20054;-36
2022/07/27 02:16:37;;;;;;;2.15;1.60;;;;;;;16.22;64.71;95950.31;2056579;28;20050;-36
2022/07/27 02:17:39;;;;;;;7.72;1.67;;;;;;;16.29;63.49;95943.72;2040456;29;20047;-37
2022/07/27 02:18:40;;;;;;;4.43;1.92;;;;;;;16.36;62.75;95945.88;2048040;28;20177;-38
2022/07/27 02:19:41;;;;;;;4.93;1.45;;;;;;;16.41;61.73;95949.88;2055890;28;20062;-40
2022/07/27 02:20:43;;;;;;;4.38;1.40;;;;;;;16.44;61.09;95948.78;2048202;29;20046;-36
2022/07/27 02:21:44;;;;;;;4.60;1.75;;;;;;;16.46;61.83;95950.34;2047572;29;20062;-40
2022/07/27 02:22:45;;;;;;;2.92;1.65;;;;;;;16.50;60.81;95949.22;2040046;29;20056;-36
2022/07/27 02:23:47;;;;;;;3.33;1.67;;;;;;;16.55;60.44;95954.13;2055770;28;20406;-37
2022/07/27 02:24:48;;;;;;;5.03;1.52;;;;;;;16.59;60.71;95949.50;2048400;29;20043;-38
2022/07/27 02:25:49;;;;;;;3.92;1.58;;;;;;;16.61;59.61;95943.19;2048217;28;20051;-36
2022/07/27 02:26:50;;;;;;;7.03;1.45;;;;;;;16.64;60.88;95942.13;2048548;29;20057;-36
2022/07/27 02:27:52;;;;;;;5.10;1.50;;;;;;;16.62;60.60;95949.28;2047515;29;20054;-38
2022/07/27 02:28:53;;;;;;;3.25;1.50;;;;;;;16.66;59.79;95950.75;2048659;28;20043;-37
2022/07/27 02:29:54;;;;;;;7.05;1.90;;;;;;;16.69;58.96;95940.03;2033092;29;20056;-33
2022/07/27 02:30:55;;;;;;;5.30;1.38;;;;;;;16.68;60.67;95941.81;2039882;29;20055;-35
2022/07/27 02:31:56;;;;;;;3.65;1.63;;;;;;;16.68;60.21;95938.31;2047689;29;20050;-33
2022/07/27 02:32:58;;;;;;;8.57;1.85;;;;;;;16.66;60.79;95953.34;2040377;29;20418;-38
2022/07/27 02:33:59;;;;;;;5.00;1.70;;;;;;;16.64;61.55;95947.38;2040081;29;20055;-36
2022/07/27 02:35:00;;;;;;;2.67;1.30;;;;;;;16.67;59.98;95947.16;2040066;29;20055;-36
2022/07/27 02:36:01;;;;;;;4.25;1.60;;;;;;;16.72;60.09;95950.28;2040244;29;20056;-35
2022/07/27 02:37:02;;;;;;;2.30;1.50;;;;;;;16.72;61.04;95952.91;2032490;29;20064;-36
2022/07/27 02:38:04;;;;;;;5.90;1.70;;;;;;;16.71;60.60;95951.25;2055540;28;20061;-33
2022/07/27 02:39:05;;;;;;;2.85;1.30;;;;;;;16.76;59.75;95954.38;2047017;28;20058;-35
2022/07/27 02:40:06;;;;;;;2.60;1.40;;;;;;;16.77;59.51;95958.69;2047414;28;20054;-38
2022/07/27 02:41:08;;;;;;;4.72;1.48;;;;;;;16.75;59.43;95960.53;2040313;29;20518;-35
2022/07/27 02:42:09;;;;;;;7.90;1.20;;;;;;;16.75;59.03;95955.31;2025102;29;20052;-34
2022/07/27 02:43:11;;;;;;;3.08;1.35;;;;;;;16.82;58.34;95956.56;2048163;29;20456;-38
2022/07/27 02:44:13;;;;;;;4.80;1.60;;;;;;;16.83;59.13;95955.63;2047986;29;20062;-39
2022/07/27 02:45:14;;;;;;;4.38;1.52;;;;;;;16.80;59.27;95958.47;2040669;29;20074;-38
2022/07/27 02:46:16;;;;;;;3.05;1.55;;;;;;;16.78;59.18;95955.09;2056202;28;20050;-36
2022/07/27 02:47:17;;;;;;;5.47;1.50;;;;;;;16.83;60.05;95953.00;2047668;29;20069;-37
2022/07/27 02:48:18;;;;;;;4.10;1.70;;;;;;;16.79;60.27;95956.81;2048293;28;20051;-38
2022/07/27 02:49:19;;;;;;;4.40;1.20;;;;;;;16.78;59.65;95956.91;2048761;28;20043;-38
2022/07/27 02:50:21;;;;;;;4.55;1.60;;;;;;;16.80;59.98;95952.38;2040422;29;20632;-39
2022/07/27 02:51:22;;;;;;;3.78;1.40;;;;;;;16.85;58.52;95953.72;2047999;29;20051;-36
2022/07/27 02:52:23;;;;;;;3.08;1.40;;;;;;;16.84;59.50;95957.31;2047612;28;20051;-39
2022/07/27 02:53:24;;;;;;;3.25;1.50;;;;;;;16.82;57.74;95953.94;2047594;29;20402;-36
2022/07/27 02:54:26;;;;;;;6.78;1.60;;;;;;;16.85;58.65;95958.97;2040418;29;20039;-39
2022/07/27 02:55:27;;;;;;;4.68;1.65;;;;;;;16.89;58.95;95964.81;2041335;28;20055;-36
2022/07/27 02:56:29;;;;;;;4.95;1.50;;;;;;;16.91;58.37;95960.31;2055960;28;20054;-36
2022/07/27 02:57:33;;;;;;;6.65;1.80;;;;;;;16.93;58.51;95961.03;2032379;29;20048;-37
2022/07/27 02:58:34;;;;;;;4.95;1.30;;;;;;;16.93;58.26;95958.41;2040606;28;20048;-37
2022/07/27 02:59:35;;;;;;;2.83;1.45;;;;;;;16.92;57.96;95961.97;2056197;28;20069;-40
2022/07/27 03:00:36;;;;;;;5.18;1.73;;;;;;;16.87;57.59;95954.47;2039798;29;20466;-38
2022/07/27 03:01:38;;;;;;;3.85;1.60;;;;;;;16.84;59.61;95959.94;2039803;29;20077;-36
2022/07/27 03:02:39;;;;;;;2.72;1.35;;;;;;;16.82;59.32;95959.19;2055374;28;20047;-37
2022/07/27 03:03:40;;;;;;;4.13;1.60;;;;;;;16.80;58.70;95957.63;2048246;29;20047;-37
2022/07/27 03:04:41;;;;;;;3.33;1.55;;;;;;;16.77;59.51;95958.69;2040371;28;20051;-38
2022/07/27 03:05:43;;;;;;;8.10;1.90;;;;;;;16.74;59.67;95957.09;2047385;29;20047;-37
2022/07/27 03:06:44;;;;;;;6.82;1.88;;;;;;;16.74;58.00;95953.63;2025083;29;20051;-39
2022/07/27 03:07:46;;;;;;;3.58;1.65;;;;;;;16.74;58.40;95959.72;2040352;29;20043;-39
2022/07/27 03:08:47;;;;;;;4.72;1.60;;;;;;;16.79;57.99;95951.56;2048092;28;20421;-38
2022/07/27 03:09:48;;;;;;;4.88;1.70;;;;;;;16.79;58.79;95956.81;2047702;29;20055;-36
2022/07/27 03:10:50;;;;;;;6.68;1.70;;;;;;;16.73;58.33;95957.19;2048139;29;20084;-41
2022/07/27 03:11:51;;;;;;;5.25;1.60;;;;;;;16.72;58.71;95960.78;2047951;29;20074;-36
2022/07/27 03:12:52;;;;;;;3.67;1.45;;;;;;;16.66;58.91;95954.19;2040118;29;20051;-36
2022/07/27 03:13:53;;;;;;;2.80;1.35;;;;;;;16.64;59.49;95953.47;2041064;28;20445;-37
2022/07/27 03:14:55;;;;;;;3.83;1.67;;;;;;;16.57;59.73;95952.22;2048187;29;20055;-35
2022/07/27 03:15:57;;;;;;;3.90;1.83;;;;;;;16.61;59.50;95950.22;2056086;28;20091;-38
2022/07/27 03:16:58;;;;;;;4.07;1.40;;;;;;;16.62;60.05;95946.66;2047203;29;20047;-39
2022/07/27 03:18:00;;;;;;;9.50;1.63;;;;;;;16.61;58.96;95945.81;2040257;29;20051;-37
2022/07/27 03:19:01;;;;;;;2.40;1.30;;;;;;;16.61;59.68;95952.84;2032737;29;20052;-38
2022/07/27 03:20:03;;;;;;;4.07;1.50;;;;;;;16.61;59.16;95958.91;2032861;29;20048;-38
2022/07/27 03:21:05;;;;;;;2.72;1.60;;;;;;;16.57;59.79;95956.63;2040332;29;20702;-36
2022/07/27 03:22:06;;;;;;;3.60;1.45;;;;;;;16.59;59.58;95954.75;2040066;29;20556;-40
2022/07/27 03:23:07;;;;;;;4.30;1.42;;;;;;;16.60;60.16;95951.16;2040168;29;20059;-37
2022/07/27 03:24:08;;;;;;;2.95;1.52;;;;;;;16.56;60.45;95954.97;2040131;29;20403;-39
2022/07/27 03:25:10;;;;;;;3.38;1.67;;;;;;;16.48;61.01;95953.72;2040166;29;20070;-35
2022/07/27 03:26:11;;;;;;;3.35;1.40;;;;;;;16.46;59.98;95960.84;2040604;29;20084;-37
2022/07/27 03:27:12;;;;;;;2.50;1.40;;;;;;;16.42;60.62;95953.34;2047559;29;20051;-36
2022/07/27 03:28:13;;;;;;;5.40;2.10;;;;;;;16.42;60.62;95962.03;2055584;28;20046;-37
2022/07/27 03:29:14;;;;;;;10.35;1.75;;;;;;;16.41;60.27;95956.88;2047877;29;20087;-39
2022/07/27 03:30:16;;;;;;;2.92;1.50;;;;;;;16.47;60.62;95959.09;2040017;29;20056;-36
2022/07/27 03:31:17;;;;;;;9.73;1.90;;;;;;;16.47;61.35;95961.72;2048679;29;20509;-36
2022/07/27 03:32:18;;;;;;;6.93;1.67;;;;;;;16.46;60.99;95966.09;2040533;28;20057;-34
2022/07/27 03:33:19;;;;;;;4.13;1.38;;;;;;;16.47;61.12;95956.47;2047634;28;20099;-39
2022/07/27 03:34:21;;;;;;;6.20;1.95;;;;;;;16.49;60.71;95955.41;2040004;29;20059;-38
2022/07/27 03:35:22;;;;;;;4.65;2.10;;;;;;;16.49;60.55;95951.94;2039931;28;20051;-37
2022/07/27 03:36:23;;;;;;;6.20;2.10;;;;;;;16.54;60.96;95953.31;2047431;29;20047;-37
2022/07/27 03:37:24;;;;;;;2.75;1.60;;;;;;;16.58;60.03;95951.28;2032608;29;20044;-37
2022/07/27 03:38:25;;;;;;;4.07;1.75;;;;;;;16.60;59.94;95954.63;2039978;29;20058;-37
2022/07/27 03:39:37;;;;;;;5.15;1.70;;;;;;;16.59;60.51;95955.56;2041585;29;20052;-39
2022/07/27 03:40:39;;;;;;;4.20;1.80;;;;;;;16.60;59.94;95959.03;2027258;29;20056;-40
2022/07/27 03:41:40;;;;;;;5.72;1.90;;;;;;;16.58;61.64;95959.16;2036278;29;20416;-41
2022/07/27 03:42:41;;;;;;;6.88;1.95;;;;;;;16.58;61.02;95964.38;2046812;28;20077;-40
2022/07/27 03:43:43;;;;;;;5.80;1.90;;;;;;;16.53;62.08;95962.09;2040137;29;20530;-41
2022/07/27 03:44:44;;;;;;;6.35;1.85;;;;;;;16.50;61.24;95964.94;2040614;29;20153;-40
2022/07/27 03:45:45;;;;;;;6.82;1.67;;;;;;;16.51;61.09;95957.91;2047868;28;20055;-43
2022/07/27 03:46:47;;;;;;;4.65;1.70;;;;;;;16.49;62.27;95960.66;2040100;29;20056;-41
2022/07/27 03:47:48;;;;;;;4.63;1.73;;;;;;;16.51;62.08;95960.53;2032429;29;20514;-40
2022/07/27 03:48:49;;;;;;;3.92;1.60;;;;;;;16.52;62.83;95956.97;2048163;28;20051;-39
2022/07/27 03:49:51;;;;;;;6.63;1.85;;;;;;;16.54;62.15;95958.53;2064374;28;20050;-40
2022/07/27 03:50:53;;;;;;;4.43;1.73;;;;;;;16.59;61.87;95957.34;2056262;28;20551;-39
2022/07/27 03:51:54;;;;;;;3.55;1.70;;;;;;;16.58;62.32;95953.06;2056880;28;20047;-41
2022/07/27 03:52:55;;;;;;;5.55;1.70;;;;;;;16.61;60.69;95952.84;2057510;28;20054;-39
2022/07/27 03:53:57;;;;;;;3.97;1.60;;;;;;;16.60;61.59;95946.78;2056967;28;20047;-40
2022/07/27 03:54:58;;;;;;;3.80;1.70;;;;;;;16.62;60.74;95944.84;2057028;28;20050;-40
2022/07/27 03:56:00;;;;;;;2.42;1.48;;;;;;;16.64;61.10;95948.22;2048709;29;20047;-42
2022/07/27 03:57:01;;;;;;;2.65;1.60;;;;;;;16.64;60.64;95942.97;2048448;28;20525;-40
2022/07/27 03:58:02;;;;;;;3.42;1.73;;;;;;;16.61;60.72;95942.38;2034135;29;20044;-40
2022/07/27 03:59:04;;;;;;;3.88;1.55;;;;;;;16.59;61.32;95944.25;2041870;29;20047;-39
2022/07/27 04:00:07;;;;;;;4.13;1.60;;;;;;;16.60;60.35;95944.16;2048828;28;20054;-39
2022/07/27 04:01:08;;;;;;;3.08;1.67;;;;;;;16.62;61.39;95946.66;2056773;28;20047;-40
2022/07/27 04:02:09;;;;;;;3.78;1.70;;;;;;;16.63;60.92;95945.72;2041660;29;20070;-37
2022/07/27 04:03:11;;;;;;;2.58;1.63;;;;;;;16.61;61.44;95942.38;2049026;28;20051;-44
2022/07/27 04:04:12;;;;;;;4.32;1.60;;;;;;;16.63;61.28;95948.34;2057311;28;20512;-43
2022/07/27 04:05:13;;;;;;;5.47;1.48;;;;;;;16.60;60.86;95945.91;2041836;28;20056;-40
2022/07/27 04:06:15;;;;;;;4.30;1.80;;;;;;;16.55;61.64;95948.88;2049378;28;20043;-40
2022/07/27 04:07:16;;;;;;;4.32;1.80;;;;;;;16.39;62.34;95953.56;2056916;28;20151;-43
2022/07/27 04:08:20;;;;;;;7.00;1.63;;;;;;;16.37;63.61;95955.44;2048927;29;20051;-40
2022/07/27 04:09:21;;;;;;;4.63;1.70;;;;;;;16.31;64.87;95957.53;2034457;29;20048;-40
2022/07/27 04:10:23;;;;;;;3.22;1.80;;;;;;;16.27;65.73;95956.06;2041741;29;20055;-41
2022/07/27 04:11:24;;;;;;;5.45;2.10;;;;;;;16.29;65.46;95958.59;2049222;28;20047;-43
2022/07/27 04:12:25;;;;;;;6.07;1.95;;;;;;;16.25;66.59;95967.59;2057635;28;20142;-41
2022/07/27 04:13:26;;;;;;;4.97;1.65;;;;;;;16.17;67.43;95955.06;2049227;29;20054;-40
2022/07/27 04:14:28;;;;;;;5.07;1.88;;;;;;;16.15;67.69;95966.59;2034082;29;20375;-40
2022/07/27 04:15:29;;;;;;;5.30;1.70;;;;;;;16.10;66.79;95965.13;2038730;29;20046;-41
2022/07/27 04:16:30;;;;;;;2.88;1.85;;;;;;;16.10;66.10;95957.25;2026014;29;20048;-40
2022/07/27 04:17:31;;;;;;;7.18;1.83;;;;;;;16.14;65.53;95955.25;2041770;28;20040;-42
2022/07/27 04:18:32;;;;;;;4.72;1.58;;;;;;;16.14;65.54;95955.25;2041795;29;20043;-38
2022/07/27 04:19:33;;;;;;;5.30;2.05;;;;;;;16.14;65.80;95957.88;2049846;29;20046;-41
2022/07/27 04:20:35;;;;;;;8.52;2.08;;;;;;;16.16;65.16;95960.41;2034090;29;20055;-45
2022/07/27 04:21:36;;;;;;;5.22;1.88;;;;;;;16.15;64.54;95958.75;2017698;29;20049;-41
2022/07/27 04:22:38;;;;;;;7.60;1.85;;;;;;;16.26;65.31;95961.44;2025483;29;20530;-38
2022/07/27 04:23:39;;;;;;;3.28;1.88;;;;;;;16.36;64.27;95956.38;2025216;29;20045;-43
2022/07/27 04:24:40;;;;;;;7.45;1.73;;;;;;;16.39;64.20;95964.03;2033873;29;20056;-41
2022/07/27 04:25:41;;;;;;;8.32;2.00;;;;;;;16.35;64.47;95959.94;2049613;29;20062;-43
2022/07/27 04:26:42;;;;;;;5.53;1.95;;;;;;;16.31;64.38;95954.94;2040905;29;20403;-40
2022/07/27 04:27:44;;;;;;;3.92;1.90;;;;;;;16.22;65.52;95952.94;2041489;29;20066;-40
2022/07/27 04:28:45;;;;;;;9.80;2.05;;;;;;;16.20;63.90;95954.84;2041730;29;20152;-43
2022/07/27 04:29:46;;;;;;;6.30;2.25;;;;;;;16.27;65.04;95955.25;2033578;29;20064;-40
2022/07/27 04:30:48;;;;;;;7.15;1.90;;;;;;;16.17;66.04;95952.44;2033789;29;20522;-42
2022/07/27 04:31:49;;;;;;;4.15;1.83;;;;;;;16.15;68.00;95954.34;2032867;29;20055;-38
2022/07/27 04:32:50;;;;;;;5.20;2.00;;;;;;;16.11;68.89;95950.22;2041134;29;20058;-40
2022/07/27 04:33:51;;;;;;;5.88;2.05;;;;;;;15.98;68.20;95955.47;2041401;29;20059;-42
2022/07/27 04:34:52;;;;;;;5.18;2.10;;;;;;;15.92;68.29;95955.91;2048762;29;20058;-40
2022/07/27 04:35:54;;;;;;;4.03;1.92;;;;;;;15.89;68.71;95950.91;2040959;29;20059;-41
2022/07/27 04:36:55;;;;;;;3.95;1.80;;;;;;;15.94;68.72;95948.81;2041486;29;20059;-44
2022/07/27 04:37:57;;;;;;;6.82;1.90;;;;;;;15.98;67.60;95950.25;2049163;29;20051;-41
2022/07/27 04:38:58;;;;;;;6.68;2.17;;;;;;;15.97;66.75;95947.75;2033529;29;20051;-36
2022/07/27 04:39:59;;;;;;;4.07;1.90;;;;;;;15.97;67.27;95943.34;2040484;29;20075;-41
2022/07/27 04:41:01;;;;;;;3.92;1.88;;;;;;;16.07;66.47;95941.75;2040987;29;20062;-41
2022/07/27 04:42:02;;;;;;;4.60;2.00;;;;;;;16.05;67.27;95941.03;2045242;28;20401;-41
2022/07/27 04:43:03;;;;;;;6.35;1.60;;;;;;;16.06;67.25;95940.09;2049016;29;20070;-40
2022/07/27 04:44:04;;;;;;;3.33;1.73;;;;;;;16.12;66.58;95944.06;2048967;28;20055;-39
2022/07/27 04:45:06;;;;;;;4.70;1.70;;;;;;;16.22;67.16;95952.94;2057019;28;20067;-41
2022/07/27 04:46:07;;;;;;;4.28;1.38;;;;;;;16.17;66.68;95956.81;2048448;29;20055;-40
2022/07/27 04:47:09;;;;;;;10.63;2.20;;;;;;;16.14;68.73;95952.63;2057062;28;20050;-40
2022/07/27 04:48:10;;;;;;;5.22;1.70;;;;;;;16.12;67.11;95945.81;2065292;28;20696;-43
2022/07/27 04:49:11;;;;;;;4.43;2.10;;;;;;;16.12;67.50;95951.06;2056854;28;20440;-41
2022/07/27 04:50:12;;;;;;;4.38;1.95;;;;;;;16.10;66.09;95954.66;2057040;28;20098;-39
2022/07/27 04:51:14;;;;;;;4.15;1.70;;;;;;;16.13;67.32;95953.59;2064950;28;20054;-39
2022/07/27 04:52:15;;;;;;;4.47;1.75;;;;;;;16.07;67.91;95944.38;2048998;28;20047;-41
2022/07/27 04:53:17;;;;;;;4.90;2.15;;;;;;;16.07;67.31;95948.78;2041323;28;20086;-41
2022/07/27 04:54:18;;;;;;;5.15;2.05;;;;;;;16.02;67.64;95941.25;2041280;29;20520;-40